Terminal Aerodrome Forecast
Issued by NWS Northern Indiana

Home | Current Version | Previous Version | Text Only | Print | Product List | Glossary Off
Versions: 1 2 3 4 5 6 7 8 9 10 11 12 13 14 15 16

486
FTUS43 KIWX 120520
TAFFWA
TAF
KFWA 120520Z 1206/1306 23005KT P6SM FEW040 BKN120
     FM121500 26012KT P6SM BKN050
     FM121800 27015G25KT 3SM -SHSN BKN025 OVC040
     FM122100 29017G28KT 3SM -SHSN OVC030=

USA.gov is the U.S. government's official web portal to all federal, state and local government web resources and services.